createdAt,value
2022-07-26T00:03:04.873Z,980.8
2022-07-26T00:17:31.002Z,980.8
2022-07-26T00:31:58.108Z,980.8
2022-07-26T00:46:25.452Z,980.9
2022-07-26T01:00:53.127Z,981.1
2022-07-26T01:15:19.824Z,981.1
2022-07-26T01:29:47.683Z,981
2022-07-26T01:44:14.400Z,981
2022-07-26T01:58:42.122Z,981.2
2022-07-26T02:13:09.626Z,981.3
2022-07-26T02:27:36.930Z,981.3
2022-07-26T02:42:04.745Z,981.3
2022-07-26T02:56:32.919Z,981.4
2022-07-26T03:10:59.983Z,981.4
2022-07-26T03:25:27.360Z,981.5
2022-07-26T03:39:54.553Z,981.6
2022-07-26T03:54:22.651Z,981.6
2022-07-26T04:08:50.304Z,981.6
2022-07-26T04:23:18.136Z,981.7
2022-07-26T04:37:45.586Z,981.7
2022-07-26T04:52:10.821Z,981.7
2022-07-26T05:06:38.982Z,981.8
2022-07-26T05:21:06.669Z,981.8
2022-07-26T05:35:34.648Z,981.8
2022-07-26T05:50:03.298Z,981.9
2022-07-26T06:04:30.327Z,981.9
2022-07-26T06:18:58.407Z,981.9
2022-07-26T06:33:27.136Z,982.1
2022-07-26T06:47:56.458Z,982.2
2022-07-26T07:02:23.204Z,982.3
2022-07-26T07:16:51.135Z,982.4
2022-07-26T07:31:19.416Z,982.5
2022-07-26T07:45:49.145Z,982.6
2022-07-26T08:00:16.123Z,982.6
2022-07-26T08:14:42.538Z,982.7
2022-07-26T08:29:12.507Z,982.7
2022-07-26T08:43:54.192Z,982.8
2022-07-26T08:58:15.486Z,982.8
2022-07-26T09:12:40.687Z,983
2022-07-26T09:27:13.703Z,983.2
2022-07-26T09:41:43.576Z,983.2
2022-07-26T09:56:09.702Z,983.2
2022-07-26T10:10:36.192Z,983.2
2022-07-26T10:25:06.345Z,983.2
2022-07-26T10:39:35.491Z,983.2
2022-07-26T10:54:03.765Z,983.2
2022-07-26T11:08:31.960Z,983.3
2022-07-26T11:23:00.373Z,983.3
2022-07-26T11:37:28.163Z,983.2
2022-07-26T11:51:55.173Z,983.2
2022-07-26T12:06:23.249Z,983.3
2022-07-26T12:21:06.508Z,983.5
2022-07-26T12:35:24.526Z,983.4
2022-07-26T12:49:52.321Z,983.2
2022-07-26T13:04:21.971Z,983.4
2022-07-26T13:18:48.050Z,983.4
2022-07-26T13:33:16.482Z,983.4
2022-07-26T13:47:44.254Z,983.4
2022-07-26T14:02:11.902Z,983.3
2022-07-26T14:16:41.614Z,983.4
2022-07-26T14:31:12.824Z,983.3
2022-07-26T14:45:40.138Z,983.3
2022-07-26T15:00:15.585Z,983.3
2022-07-26T15:14:43.515Z,983.3
2022-07-26T15:29:12.619Z,983.3
2022-07-26T15:43:49.961Z,983.3
2022-07-26T15:58:13.341Z,983.4
2022-07-26T16:12:42.376Z,983.5
2022-07-26T16:27:11.488Z,983.4
2022-07-26T16:41:33.840Z,983.7
2022-07-26T16:56:01.056Z,983.6
2022-07-26T17:10:28.066Z,983.7
2022-07-26T17:24:55.326Z,983.8
2022-07-26T17:39:54.221Z,983.9
2022-07-26T17:54:08.705Z,983.9
2022-07-26T18:08:37.720Z,983.9
2022-07-26T18:23:02.916Z,983.7
2022-07-26T18:37:30.689Z,983.9
2022-07-26T18:52:09.076Z,983.8
2022-07-26T19:06:29.244Z,983.9
2022-07-26T19:20:57.478Z,984.2
2022-07-26T19:35:25.846Z,984.4
2022-07-26T19:49:53.141Z,984.5
2022-07-26T20:04:22.713Z,984.6
2022-07-26T20:18:49.436Z,984.8
2022-07-26T20:33:16.653Z,984.7
2022-07-26T20:47:42.775Z,984.8
2022-07-26T21:02:17.102Z,984.9
2022-07-26T21:16:46.173Z,985
2022-07-26T21:31:10.013Z,985
2022-07-26T21:45:37.571Z,985
2022-07-26T22:00:04.591Z,985.1
2022-07-26T22:14:32.624Z,985.2
2022-07-26T22:29:06.868Z,985.2
2022-07-26T22:43:37.120Z,985.2
2022-07-26T22:58:01.415Z,985.1
2022-07-26T23:12:30.421Z,985.1
2022-07-26T23:26:57.026Z,985.1
2022-07-26T23:41:24.452Z,985.2
2022-07-26T23:55:50.088Z,985.1
